Time;durP1;ratioP1;P1;durP2;ratioP2;P2;SDS_P1;SDS_P2;PMS_P1;PMS_P2;Temp;Humidity;BMP_temperature;BMP_pressure;BME280_temperature;BME280_humidity;BME280_pressure;Samples;Min_cycle;Max_cycle;Signal;HPM_P1;HPM_P2
2023/01/29 14:52:41;;;;;;;41.08;20.92;;;4.00;99.90;;;;;;5110315;27;20557;-63
2023/01/29 14:55:17;;;;;;;;;;;4.00;99.90;;;;;;5109771;28;20452;-64
2023/01/29 14:57:44;;;;;;;42.70;19.42;;;4.10;99.90;;;;;;5109422;28;19904;-66
2023/01/29 15:00:26;;;;;;;40.70;20.27;;;4.10;99.90;;;;;;5108797;28;20092;-64
2023/01/29 15:02:55;;;;;;;37.80;20.15;;;4.20;99.90;;;;;;5109603;28;20020;-63
2023/01/29 15:05:27;;;;;;;39.83;20.02;;;4.30;99.90;;;;;;5109816;28;20016;-65
2023/01/29 15:08:07;;;;;;;37.35;18.92;;;4.30;99.90;;;;;;5108601;28;20012;-65
2023/01/29 15:10:44;;;;;;;38.40;19.17;;;4.40;99.90;;;;;;5095448;28;20101;-65
2023/01/29 15:13:31;;;;;;;41.17;19.48;;;4.50;99.90;;;;;;5107099;28;20792;-64
2023/01/29 15:16:05;;;;;;;33.92;18.98;;;4.50;99.90;;;;;;5108552;28;20026;-65
2023/01/29 15:18:36;;;;;;;34.13;17.75;;;4.50;99.90;;;;;;5087301;28;20012;-64
2023/01/29 15:21:13;;;;;;;32.50;19.23;;;4.60;99.90;;;;;;5102605;28;20023;-65
2023/01/29 15:23:39;;;;;;;37.75;18.77;;;4.60;99.90;;;;;;5112351;28;20016;-62
2023/01/29 15:26:10;;;;;;;36.65;19.80;;;4.60;99.90;;;;;;5114363;28;20039;-64
2023/01/29 15:28:37;;;;;;;35.67;19.27;;;4.60;99.90;;;;;;5118387;28;20019;-67
2023/01/29 15:31:06;;;;;;;33.25;19.13;;;4.60;99.90;;;;;;5108008;28;20052;-63
2023/01/29 15:33:37;;;;;;;36.13;19.67;;;4.60;99.90;;;;;;5108549;28;20400;-62
2023/01/29 15:36:05;;;;;;;32.28;17.58;;;4.60;99.90;;;;;;5107097;28;20053;-62
2023/01/29 15:38:31;;;;;;;33.03;18.08;;;4.60;99.90;;;;;;5122791;28;20019;-62
2023/01/29 15:41:02;;;;;;;34.10;18.75;;;4.60;99.90;;;;;;5124440;28;20100;-62
2023/01/29 15:43:31;;;;;;;34.90;17.85;;;4.60;99.90;;;;;;5118940;28;20036;-62
2023/01/29 15:46:23;;;;;;;32.35;17.13;;;4.60;99.90;;;;;;5113193;28;20070;-62
2023/01/29 15:48:50;;;;;;;37.33;19.38;;;4.60;99.90;;;;;;5107754;28;20041;-62
2023/01/29 15:51:19;;;;;;;36.95;18.70;;;4.60;99.90;;;;;;5106748;28;20048;-63
2023/01/29 15:53:52;;;;;;;35.88;18.77;;;4.60;99.90;;;;;;5107118;28;20027;-63
2023/01/29 15:56:23;;;;;;;37.45;19.90;;;4.60;99.90;;;;;;5107864;28;20511;-63
2023/01/29 15:58:50;;;;;;;36.78;18.98;;;4.50;99.90;;;;;;5109521;28;20418;-63
2023/01/29 16:01:16;;;;;;;36.33;19.38;;;4.50;99.90;;;;;;5126661;27;20034;-63
2023/01/29 16:03:43;;;;;;;37.28;19.92;;;4.50;99.90;;;;;;5110235;28;20035;-63
2023/01/29 16:06:10;;;;;;;38.38;20.90;;;4.50;99.90;;;;;;5113748;28;20035;-64
2023/01/29 16:08:38;;;;;;;37.65;19.65;;;4.50;99.90;;;;;;5096785;28;20024;-63
2023/01/29 16:11:06;;;;;;;35.88;18.50;;;4.50;99.90;;;;;;5087002;28;20053;-63
2023/01/29 16:13:43;;;;;;;39.50;19.77;;;4.50;99.90;;;;;;5075539;28;20040;-63
2023/01/29 16:16:14;;;;;;;36.08;19.08;;;4.50;99.90;;;;;;5093298;28;20024;-63
2023/01/29 16:18:43;;;;;;;36.50;19.38;;;4.40;99.90;;;;;;5085780;28;20091;-63
2023/01/29 16:21:28;;;;;;;35.70;18.00;;;4.40;99.90;;;;;;5081009;28;20012;-63
2023/01/29 16:23:57;;;;;;;31.42;18.15;;;4.50;99.90;;;;;;5112291;28;20020;-64
2023/01/29 16:26:30;;;;;;;35.25;19.13;;;4.50;99.90;;;;;;5114340;28;20027;-63
2023/01/29 16:29:03;;;;;;;39.33;18.88;;;4.40;99.90;;;;;;5114175;28;20097;-64
2023/01/29 16:31:31;;;;;;;36.50;18.60;;;4.40;99.90;;;;;;5105123;28;20028;-63
2023/01/29 16:34:04;;;;;;;42.78;20.45;;;4.40;99.90;;;;;;5093486;28;20024;-62
2023/01/29 16:36:30;;;;;;;34.67;19.05;;;4.40;99.90;;;;;;5093582;28;20024;-63
2023/01/29 16:39:12;;;;;;;33.15;16.98;;;4.40;99.90;;;;;;5087706;28;21963;-62
2023/01/29 16:41:38;;;;;;;35.72;19.13;;;4.40;99.90;;;;;;5088706;28;20066;-62
2023/01/29 16:44:31;;;;;;;36.13;18.60;;;4.40;99.90;;;;;;5091915;28;20044;-62
2023/01/29 16:47:12;;;;;;;31.85;17.58;;;4.40;99.90;;;;;;5092757;28;20060;-62
2023/01/29 16:49:38;;;;;;;33.67;18.20;;;4.40;99.90;;;;;;5091955;28;20020;-62
2023/01/29 16:52:18;;;;;;;36.55;19.48;;;4.40;99.90;;;;;;5092373;28;20065;-62
2023/01/29 16:54:43;;;;;;;33.80;18.05;;;4.40;99.90;;;;;;5091567;28;20031;-62
2023/01/29 16:57:21;;;;;;;35.00;18.15;;;4.40;99.90;;;;;;5093150;28;20099;-62
2023/01/29 16:59:48;;;;;;;33.25;16.92;;;4.40;99.90;;;;;;5094719;28;20534;-62
2023/01/29 17:02:26;;;;;;;35.53;18.63;;;4.40;99.90;;;;;;5092241;28;20427;-64
2023/01/29 17:04:56;;;;;;;37.60;17.75;;;4.40;99.90;;;;;;5093097;28;20031;-62
2023/01/29 17:07:22;;;;;;;40.80;18.67;;;4.40;99.90;;;;;;5095243;28;20024;-63
2023/01/29 17:09:54;;;;;;;34.03;17.27;;;4.30;99.90;;;;;;5091501;28;20068;-62
2023/01/29 17:12:23;;;;;;;38.75;18.23;;;4.30;99.90;;;;;;5091199;28;20040;-62
2023/01/29 17:14:57;;;;;;;38.75;16.35;;;4.30;99.90;;;;;;5090861;28;20024;-63
2023/01/29 17:17:32;;;;;;;38.60;19.20;;;4.40;99.90;;;;;;5092211;28;20035;-61
2023/01/29 17:20:10;;;;;;;39.28;17.23;;;4.30;99.90;;;;;;5092336;28;20026;-63
2023/01/29 17:22:35;;;;;;;34.83;17.23;;;4.30;99.90;;;;;;5093391;28;20027;-65
2023/01/29 17:25:01;;;;;;;33.22;16.95;;;4.30;99.90;;;;;;5100426;28;20160;-66
2023/01/29 17:27:27;;;;;;;34.50;16.83;;;4.30;99.90;;;;;;5105692;28;20118;-65
2023/01/29 17:29:53;;;;;;;32.67;17.17;;;4.30;99.90;;;;;;5099276;28;20019;-64
2023/01/29 17:32:19;;;;;;;33.20;17.60;;;4.30;99.90;;;;;;5109560;28;20438;-64
2023/01/29 17:34:48;;;;;;;32.88;16.83;;;4.30;99.90;;;;;;5110233;28;20392;-65
2023/01/29 17:37:14;;;;;;;36.00;17.25;;;4.20;99.90;;;;;;5110756;28;20484;-66
2023/01/29 17:39:41;;;;;;;32.45;16.63;;;4.20;99.90;;;;;;5110561;28;20085;-63
2023/01/29 17:42:12;;;;;;;29.92;16.55;;;4.20;99.90;;;;;;5106158;28;20027;-66
2023/01/29 17:44:39;;;;;;;33.50;17.40;;;4.20;99.90;;;;;;5107086;28;20020;-64
2023/01/29 17:47:04;;;;;;;34.47;16.98;;;4.20;99.90;;;;;;5090735;28;20103;-64
2023/01/29 17:49:34;;;;;;;31.88;16.10;;;4.10;99.90;;;;;;5094629;28;20119;-63
2023/01/29 17:52:00;;;;;;;33.75;17.35;;;4.10;99.90;;;;;;5112269;28;20075;-63
2023/01/29 17:54:26;;;;;;;33.88;18.00;;;4.20;99.90;;;;;;5110109;28;20112;-62
2023/01/29 17:56:53;;;;;;;35.45;17.95;;;4.10;99.90;;;;;;5102713;28;20034;-62
2023/01/29 17:59:24;;;;;;;29.95;16.80;;;4.10;99.90;;;;;;5092025;28;20024;-63
2023/01/29 18:01:50;;;;;;;34.97;16.98;;;4.10;99.90;;;;;;5113710;27;20020;-63
2023/01/29 18:04:16;;;;;;;35.65;17.63;;;4.10;99.90;;;;;;5103779;28;20052;-63
2023/01/29 18:06:44;;;;;;;32.83;17.02;;;4.10;99.90;;;;;;5083584;28;20102;-63
2023/01/29 18:09:13;;;;;;;36.58;18.02;;;4.00;99.90;;;;;;5091009;28;20028;-63
2023/01/29 18:11:39;;;;;;;35.05;16.25;;;4.00;99.90;;;;;;5090827;28;20050;-63
2023/01/29 18:14:04;;;;;;;36.08;16.55;;;4.10;99.90;;;;;;5090114;28;20016;-62
2023/01/29 18:16:35;;;;;;;31.90;17.33;;;4.00;99.90;;;;;;5089562;28;20059;-63
2023/01/29 18:19:21;;;;;;;31.00;17.90;;;4.00;99.90;;;;;;5089882;28;20024;-63
2023/01/29 18:21:48;;;;;;;32.50;17.27;;;4.10;99.90;;;;;;5090755;28;20034;-63
2023/01/29 18:24:14;;;;;;;29.83;15.43;;;4.10;99.90;;;;;;5089538;28;20020;-63
2023/01/29 18:26:40;;;;;;;36.33;17.80;;;4.00;99.90;;;;;;5089311;28;20061;-62
2023/01/29 18:29:06;;;;;;;33.05;16.85;;;4.00;99.90;;;;;;5091193;28;20095;-63
2023/01/29 18:31:32;;;;;;;35.05;17.05;;;4.00;99.90;;;;;;5090088;28;20123;-63
2023/01/29 18:33:57;;;;;;;34.00;17.30;;;4.00;99.90;;;;;;5074675;28;20056;-63
2023/01/29 18:36:23;;;;;;;34.65;16.60;;;4.10;99.90;;;;;;5074827;28;20055;-63
2023/01/29 18:38:48;;;;;;;30.65;15.15;;;4.10;99.90;;;;;;5090762;28;20421;-63
2023/01/29 18:41:14;;;;;;;33.15;15.90;;;4.10;99.90;;;;;;5107004;28;20028;-64
2023/01/29 18:43:40;;;;;;;31.92;15.60;;;4.10;99.90;;;;;;5095568;28;20106;-63
2023/01/29 18:46:07;;;;;;;33.03;16.92;;;4.10;99.90;;;;;;5091502;28;20108;-63
2023/01/29 18:48:33;;;;;;;30.90;15.18;;;4.10;99.90;;;;;;5092190;28;20024;-62
2023/01/29 18:50:59;;;;;;;31.10;16.55;;;4.10;99.90;;;;;;5099015;28;20036;-63
2023/01/29 18:53:25;;;;;;;32.28;17.08;;;4.20;99.90;;;;;;5090484;28;20030;-63
2023/01/29 18:56:01;;;;;;;31.83;17.55;;;4.10;99.90;;;;;;5097484;28;20015;-63
2023/01/29 18:58:26;;;;;;;33.00;16.33;;;4.10;99.90;;;;;;5092151;28;20471;-63
2023/01/29 19:00:52;;;;;;;32.15;15.90;;;4.10;99.90;;;;;;5090882;28;20099;-63
2023/01/29 19:03:18;;;;;;;30.17;16.25;;;4.20;99.90;;;;;;5090733;28;20059;-63
2023/01/29 19:05:43;;;;;;;34.38;17.20;;;4.20;99.90;;;;;;5096750;28;20032;-63
2023/01/29 19:08:09;;;;;;;36.78;16.50;;;4.20;99.90;;;;;;5098841;28;20111;-63
2023/01/29 19:10:35;;;;;;;33.00;17.20;;;4.20;99.90;;;;;;5090808;28;20032;-64
2023/01/29 19:13:00;;;;;;;32.13;16.33;;;4.20;99.90;;;;;;5091250;28;20024;-63
2023/01/29 19:15:26;;;;;;;27.77;16.27;;;4.20;99.90;;;;;;5090595;28;20023;-63
2023/01/29 19:17:52;;;;;;;26.35;14.30;;;4.20;99.90;;;;;;5092259;28;20126;-63
2023/01/29 19:20:18;;;;;;;34.78;16.88;;;4.20;99.90;;;;;;5102190;28;20376;-63
2023/01/29 19:22:43;;;;;;;32.22;15.88;;;4.20;99.90;;;;;;5089070;28;20042;-63
2023/01/29 19:25:09;;;;;;;30.58;15.40;;;4.20;99.90;;;;;;5090853;28;20379;-63
2023/01/29 19:27:35;;;;;;;33.53;15.40;;;4.20;99.90;;;;;;5090275;28;20024;-62
2023/01/29 19:30:04;;;;;;;30.23;16.02;;;4.30;99.90;;;;;;5091352;28;20028;-64
2023/01/29 19:32:30;;;;;;;34.70;17.92;;;4.30;99.90;;;;;;5089744;28;20032;-64
2023/01/29 19:34:56;;;;;;;31.58;16.02;;;4.30;99.90;;;;;;5090475;28;20025;-64
2023/01/29 19:37:22;;;;;;;31.73;16.23;;;4.30;99.90;;;;;;5091951;28;20078;-64
2023/01/29 19:39:48;;;;;;;32.58;14.88;;;4.30;99.90;;;;;;5094515;28;20023;-64
2023/01/29 19:42:13;;;;;;;31.35;15.70;;;4.30;99.90;;;;;;5093817;28;20048;-65
2023/01/29 19:44:39;;;;;;;29.73;15.30;;;4.30;99.90;;;;;;5095778;28;20461;-64
2023/01/29 19:47:05;;;;;;;30.90;15.50;;;4.30;99.90;;;;;;5094917;28;20047;-64
2023/01/29 19:49:32;;;;;;;33.85;17.45;;;4.30;99.90;;;;;;5109466;28;20095;-63
2023/01/29 19:51:59;;;;;;;28.33;16.65;;;4.30;99.90;;;;;;5098411;28;20035;-64
2023/01/29 19:54:26;;;;;;;29.58;16.55;;;4.30;99.90;;;;;;5114289;28;20069;-64
2023/01/29 19:56:53;;;;;;;31.05;14.63;;;4.30;99.90;;;;;;5113400;28;20107;-63
2023/01/29 19:59:19;;;;;;;28.42;16.13;;;4.30;99.90;;;;;;5114875;28;20020;-64
2023/01/29 20:01:44;;;;;;;30.90;16.38;;;4.30;99.90;;;;;;5106968;28;20464;-63
2023/01/29 20:04:10;;;;;;;33.13;16.40;;;4.40;99.90;;;;;;5093130;28;20020;-63
2023/01/29 20:06:36;;;;;;;28.33;15.07;;;4.40;99.90;;;;;;5094049;28;20026;-64
2023/01/29 20:09:02;;;;;;;29.30;14.20;;;4.40;99.90;;;;;;5094001;28;20410;-63
2023/01/29 20:11:29;;;;;;;30.58;15.88;;;4.40;99.90;;;;;;5092333;28;20396;-63
2023/01/29 20:13:55;;;;;;;33.83;16.60;;;4.40;99.90;;;;;;5093953;28;20017;-63
2023/01/29 20:16:21;;;;;;;32.35;15.32;;;4.40;99.90;;;;;;5092808;28;20097;-64
2023/01/29 20:18:47;;;;;;;30.10;14.98;;;4.50;99.90;;;;;;5092487;28;20016;-64
2023/01/29 20:21:16;;;;;;;31.13;16.05;;;4.50;99.90;;;;;;5105436;28;20361;-63
2023/01/29 20:23:42;;;;;;;29.00;14.75;;;4.50;99.90;;;;;;5110501;28;20035;-63
2023/01/29 20:26:13;;;;;;;31.23;15.57;;;4.50;99.90;;;;;;5103616;28;20118;-63
2023/01/29 20:28:38;;;;;;;34.70;16.25;;;4.50;99.90;;;;;;5093293;28;20089;-64
2023/01/29 20:31:06;;;;;;;32.47;16.60;;;4.50;99.90;;;;;;5092671;28;20024;-62
2023/01/29 20:33:33;;;;;;;32.22;16.20;;;4.50;99.90;;;;;;5093067;28;20055;-63
2023/01/29 20:36:01;;;;;;;32.58;15.10;;;4.50;99.90;;;;;;5092124;28;20092;-63
2023/01/29 20:38:30;;;;;;;33.40;17.02;;;4.50;99.90;;;;;;5092594;28;20473;-63
2023/01/29 20:41:08;;;;;;;32.35;15.52;;;4.50;99.90;;;;;;5094098;28;20110;-62
2023/01/29 20:43:34;;;;;;;28.70;15.70;;;4.50;99.90;;;;;;5092105;28;20433;-63
2023/01/29 20:46:00;;;;;;;32.95;16.10;;;4.50;99.90;;;;;;5093113;28;20074;-63
2023/01/29 20:48:26;;;;;;;30.90;15.35;;;4.50;99.90;;;;;;5097356;28;20107;-63
2023/01/29 20:50:52;;;;;;;33.08;16.10;;;4.50;99.90;;;;;;5091854;28;20122;-63
2023/01/29 20:53:18;;;;;;;31.27;16.17;;;4.50;99.90;;;;;;5092769;28;20020;-63
2023/01/29 20:55:44;;;;;;;35.22;17.73;;;4.60;99.90;;;;;;5092762;28;20382;-63
2023/01/29 20:58:10;;;;;;;35.40;17.40;;;4.60;99.90;;;;;;5092169;28;20469;-63
2023/01/29 21:00:36;;;;;;;35.50;17.20;;;4.60;99.90;;;;;;5092373;28;20020;-63
2023/01/29 21:03:01;;;;;;;41.15;18.70;;;4.60;99.90;;;;;;5092600;28;20024;-63
2023/01/29 21:05:27;;;;;;;34.10;18.02;;;4.60;99.90;;;;;;5091576;28;20106;-63
2023/01/29 21:07:52;;;;;;;34.35;17.48;;;4.60;99.90;;;;;;5091291;28;20031;-62
2023/01/29 21:10:18;;;;;;;36.83;17.80;;;4.50;99.90;;;;;;5092604;28;20020;-62
2023/01/29 21:12:44;;;;;;;34.30;17.80;;;4.60;99.90;;;;;;5091282;28;20114;-63
2023/01/29 21:15:10;;;;;;;35.47;17.95;;;4.60;99.90;;;;;;5091389;28;20465;-63
2023/01/29 21:17:35;;;;;;;33.50;16.83;;;4.60;99.90;;;;;;5093276;28;20108;-62
2023/01/29 21:20:03;;;;;;;38.83;17.50;;;4.60;99.90;;;;;;5092563;28;20024;-62
2023/01/29 21:22:29;;;;;;;33.13;16.58;;;4.60;99.90;;;;;;5092146;28;20125;-63
2023/01/29 21:24:55;;;;;;;36.13;17.95;;;4.60;99.90;;;;;;5092053;28;20024;-62
2023/01/29 21:27:20;;;;;;;35.38;17.45;;;4.60;99.90;;;;;;5091589;28;20517;-63
2023/01/29 21:29:46;;;;;;;38.25;17.73;;;4.60;99.90;;;;;;5091999;28;20105;-63
2023/01/29 21:32:12;;;;;;;45.17;19.85;;;4.60;99.90;;;;;;5090949;28;20024;-63
2023/01/29 21:34:38;;;;;;;35.25;17.27;;;4.60;99.90;;;;;;5088516;28;20096;-63
2023/01/29 21:37:04;;;;;;;41.95;18.52;;;4.60;99.90;;;;;;5092151;28;20111;-63
2023/01/29 21:39:29;;;;;;;45.55;19.00;;;4.70;99.90;;;;;;5092106;28;20389;-63
2023/01/29 21:44:39;;;;;;;36.85;17.67;;;4.70;99.90;;;;;;5091576;28;20118;-63
2023/01/29 21:47:11;;;;;;;45.13;21.38;;;4.70;99.90;;;;;;5091288;28;20099;-63
